sensor_id;sensor_type;location;lat;lon;timestamp;P1;durP1;ratioP1;P2;durP2;ratioP2
45382;SDS011;42455;51.660;5.824;2023-02-15T00:01:05;25.0;;;21.0;;
45382;SDS011;42455;51.660;5.824;2023-02-15T00:06:05;26.0;;;21.5;;
45382;SDS011;42455;51.660;5.824;2023-02-15T00:11:13;24.0;;;20.0;;
45382;SDS011;42455;51.660;5.824;2023-02-15T00:16:18;23.0;;;20.0;;
45382;SDS011;42455;51.660;5.824;2023-02-15T00:21:24;24.0;;;20.0;;
45382;SDS011;42455;51.660;5.824;2023-02-15T00:26:30;26.0;;;22.0;;
45382;SDS011;42455;51.660;5.824;2023-02-15T00:31:36;25.0;;;20.0;;
45382;SDS011;42455;51.660;5.824;2023-02-15T00:36:43;25.0;;;20.0;;
45382;SDS011;42455;51.660;5.824;2023-02-15T00:41:49;27.0;;;22.0;;
45382;SDS011;42455;51.660;5.824;2023-02-15T00:46:55;29.0;;;23.0;;
45382;SDS011;42455;51.660;5.824;2023-02-15T00:52:01;26.0;;;21.0;;
45382;SDS011;42455;51.660;5.824;2023-02-15T00:57:07;27.0;;;22.0;;
45382;SDS011;42455;51.660;5.824;2023-02-15T01:02:14;26.0;;;21.0;;
45382;SDS011;42455;51.660;5.824;2023-02-15T01:07:20;26.0;;;21.0;;
45382;SDS011;42455;51.660;5.824;2023-02-15T01:12:26;25.0;;;21.0;;
45382;SDS011;42455;51.660;5.824;2023-02-15T01:17:32;27.5;;;22.0;;
45382;SDS011;42455;51.660;5.824;2023-02-15T01:32:51;27.0;;;22.0;;
45382;SDS011;42455;51.660;5.824;2023-02-15T01:37:57;26.0;;;20.5;;
45382;SDS011;42455;51.660;5.824;2023-02-15T01:43:08;25.0;;;21.0;;
45382;SDS011;42455;51.660;5.824;2023-02-15T01:48:20;24.0;;;20.0;;
45382;SDS011;42455;51.660;5.824;2023-02-15T01:58:22;23.0;;;20.0;;
45382;SDS011;42455;51.660;5.824;2023-02-15T02:03:30;24.0;;;20.0;;
45382;SDS011;42455;51.660;5.824;2023-02-15T02:08:39;26.0;;;21.0;;
45382;SDS011;42455;51.660;5.824;2023-02-15T02:13:45;26.0;;;21.0;;
45382;SDS011;42455;51.660;5.824;2023-02-15T02:20:07;26.0;;;21.0;;
45382;SDS011;42455;51.660;5.824;2023-02-15T02:27:32;24.0;;;20.0;;
45382;SDS011;42455;51.660;5.824;2023-02-15T02:33:46;25.0;;;20.0;;
45382;SDS011;42455;51.660;5.824;2023-02-15T02:38:48;25.5;;;20.0;;
45382;SDS011;42455;51.660;5.824;2023-02-15T02:43:54;27.0;;;21.0;;
45382;SDS011;42455;51.660;5.824;2023-02-15T02:47:40;24.0;;;20.0;;
45382;SDS011;42455;51.660;5.824;2023-02-15T02:50:05;25.0;;;20.0;;
45382;SDS011;42455;51.660;5.824;2023-02-15T02:55:10;26.0;;;20.0;;
45382;SDS011;42455;51.660;5.824;2023-02-15T03:00:15;26.0;;;20.0;;
45382;SDS011;42455;51.660;5.824;2023-02-15T03:05:21;27.0;;;20.5;;
45382;SDS011;42455;51.660;5.824;2023-02-15T03:10:27;26.0;;;20.0;;
45382;SDS011;42455;51.660;5.824;2023-02-15T03:15:34;26.0;;;21.0;;
45382;SDS011;42455;51.660;5.824;2023-02-15T03:20:39;25.5;;;20.0;;
45382;SDS011;42455;51.660;5.824;2023-02-15T03:25:46;26.0;;;20.0;;
45382;SDS011;42455;51.660;5.824;2023-02-15T03:30:55;24.0;;;20.0;;
45382;SDS011;42455;51.660;5.824;2023-02-15T03:36:05;26.5;;;20.0;;
45382;SDS011;42455;51.660;5.824;2023-02-15T03:41:04;25.0;;;20.0;;
45382;SDS011;42455;51.660;5.824;2023-02-15T03:46:11;23.0;;;19.0;;
45382;SDS011;42455;51.660;5.824;2023-02-15T03:51:19;22.0;;;18.5;;
45382;SDS011;42455;51.660;5.824;2023-02-15T03:56:23;23.0;;;18.0;;
45382;SDS011;42455;51.660;5.824;2023-02-15T04:01:35;22.0;;;18.0;;
45382;SDS011;42455;51.660;5.824;2023-02-15T04:06:35;24.0;;;19.0;;
45382;SDS011;42455;51.660;5.824;2023-02-15T04:11:41;23.0;;;19.0;;
45382;SDS011;42455;51.660;5.824;2023-02-15T04:16:47;23.0;;;19.0;;
45382;SDS011;42455;51.660;5.824;2023-02-15T04:21:53;25.0;;;20.0;;
45382;SDS011;42455;51.660;5.824;2023-02-15T04:26:59;25.0;;;21.0;;
45382;SDS011;42455;51.660;5.824;2023-02-15T04:32:05;26.5;;;21.0;;
45382;SDS011;42455;51.660;5.824;2023-02-15T04:37:11;25.5;;;20.0;;
45382;SDS011;42455;51.660;5.824;2023-02-15T04:42:18;26.0;;;20.0;;
45382;SDS011;42455;51.660;5.824;2023-02-15T04:47:24;24.0;;;19.0;;
45382;SDS011;42455;51.660;5.824;2023-02-15T04:52:29;25.0;;;20.0;;
45382;SDS011;42455;51.660;5.824;2023-02-15T04:57:35;27.0;;;20.0;;
45382;SDS011;42455;51.660;5.824;2023-02-15T05:02:41;27.0;;;22.0;;
45382;SDS011;42455;51.660;5.824;2023-02-15T05:07:47;28.0;;;21.5;;
45382;SDS011;42455;51.660;5.824;2023-02-15T05:12:53;28.0;;;21.0;;
45382;SDS011;42455;51.660;5.824;2023-02-15T05:17:59;27.0;;;22.0;;
45382;SDS011;42455;51.660;5.824;2023-02-15T05:23:05;28.0;;;22.0;;
45382;SDS011;42455;51.660;5.824;2023-02-15T05:28:12;30.0;;;23.0;;
45382;SDS011;42455;51.660;5.824;2023-02-15T05:33:18;31.0;;;23.0;;
45382;SDS011;42455;51.660;5.824;2023-02-15T05:38:24;31.0;;;23.0;;
45382;SDS011;42455;51.660;5.824;2023-02-15T05:43:30;30.0;;;23.0;;
45382;SDS011;42455;51.660;5.824;2023-02-15T05:48:36;31.5;;;23.5;;
45382;SDS011;42455;51.660;5.824;2023-02-15T05:53:43;30.0;;;23.0;;
45382;SDS011;42455;51.660;5.824;2023-02-15T05:58:49;33.0;;;23.0;;
45382;SDS011;42455;51.660;5.824;2023-02-15T06:03:55;30.0;;;23.0;;
45382;SDS011;42455;51.660;5.824;2023-02-15T06:09:01;32.0;;;24.0;;
45382;SDS011;42455;51.660;5.824;2023-02-15T06:14:07;31.0;;;24.0;;
45382;SDS011;42455;51.660;5.824;2023-02-15T06:19:14;34.0;;;25.0;;
45382;SDS011;42455;51.660;5.824;2023-02-15T06:24:20;31.0;;;23.0;;
45382;SDS011;42455;51.660;5.824;2023-02-15T06:29:26;30.0;;;23.0;;
45382;SDS011;42455;51.660;5.824;2023-02-15T06:34:32;30.0;;;23.0;;
45382;SDS011;42455;51.660;5.824;2023-02-15T06:39:38;32.0;;;24.0;;
45382;SDS011;42455;51.660;5.824;2023-02-15T06:44:45;33.0;;;24.0;;
45382;SDS011;42455;51.660;5.824;2023-02-15T06:49:50;33.0;;;25.0;;
45382;SDS011;42455;51.660;5.824;2023-02-15T06:54:56;32.0;;;24.0;;
45382;SDS011;42455;51.660;5.824;2023-02-15T07:00:02;33.0;;;24.0;;
45382;SDS011;42455;51.660;5.824;2023-02-15T07:05:08;35.0;;;25.0;;
45382;SDS011;42455;51.660;5.824;2023-02-15T07:10:15;34.0;;;24.0;;
45382;SDS011;42455;51.660;5.824;2023-02-15T07:15:21;36.0;;;27.0;;
45382;SDS011;42455;51.660;5.824;2023-02-15T07:20:27;37.0;;;26.0;;
45382;SDS011;42455;51.660;5.824;2023-02-15T07:25:34;36.0;;;26.0;;
45382;SDS011;42455;51.660;5.824;2023-02-15T07:30:40;38.0;;;28.0;;
45382;SDS011;42455;51.660;5.824;2023-02-15T07:35:46;40.0;;;29.0;;
45382;SDS011;42455;51.660;5.824;2023-02-15T07:40:56;41.0;;;29.0;;
45382;SDS011;42455;51.660;5.824;2023-02-15T07:45:58;42.0;;;31.0;;
45382;SDS011;42455;51.660;5.824;2023-02-15T07:51:05;43.0;;;31.0;;
45382;SDS011;42455;51.660;5.824;2023-02-15T07:56:11;43.0;;;31.0;;
45382;SDS011;42455;51.660;5.824;2023-02-15T08:01:17;40.0;;;31.0;;
45382;SDS011;42455;51.660;5.824;2023-02-15T08:06:24;42.5;;;32.0;;
45382;SDS011;42455;51.660;5.824;2023-02-15T08:11:30;44.5;;;32.0;;
45382;SDS011;42455;51.660;5.824;2023-02-15T08:16:37;43.0;;;32.0;;
45382;SDS011;42455;51.660;5.824;2023-02-15T08:21:43;43.0;;;31.0;;
45382;SDS011;42455;51.660;5.824;2023-02-15T08:26:48;42.5;;;31.0;;
45382;SDS011;42455;51.660;5.824;2023-02-15T08:31:55;42.0;;;31.0;;
45382;SDS011;42455;51.660;5.824;2023-02-15T08:36:59;46.5;;;32.0;;
45382;SDS011;42455;51.660;5.824;2023-02-15T08:42:06;44.0;;;32.0;;
45382;SDS011;42455;51.660;5.824;2023-02-15T08:47:11;47.0;;;33.0;;
45382;SDS011;42455;51.660;5.824;2023-02-15T08:57:23;47.0;;;34.0;;
45382;SDS011;42455;51.660;5.824;2023-02-15T09:02:28;49.0;;;35.0;;
45382;SDS011;42455;51.660;5.824;2023-02-15T09:07:35;46.0;;;35.5;;
45382;SDS011;42455;51.660;5.824;2023-02-15T09:12:41;47.0;;;35.0;;
45382;SDS011;42455;51.660;5.824;2023-02-15T09:17:47;45.5;;;34.0;;
45382;SDS011;42455;51.660;5.824;2023-02-15T09:22:53;47.0;;;35.0;;
45382;SDS011;42455;51.660;5.824;2023-02-15T09:27:59;43.0;;;34.0;;
45382;SDS011;42455;51.660;5.824;2023-02-15T09:33:06;44.0;;;33.0;;
45382;SDS011;42455;51.660;5.824;2023-02-15T09:38:12;42.0;;;32.0;;
45382;SDS011;42455;51.660;5.824;2023-02-15T09:44:13;43.5;;;33.0;;
45382;SDS011;42455;51.660;5.824;2023-02-15T09:49:52;42.0;;;32.0;;
45382;SDS011;42455;51.660;5.824;2023-02-15T09:55:58;40.0;;;32.0;;
45382;SDS011;42455;51.660;5.824;2023-02-15T10:01:22;41.0;;;31.5;;
45382;SDS011;42455;51.660;5.824;2023-02-15T10:07:53;40.0;;;31.0;;
45382;SDS011;42455;51.660;5.824;2023-02-15T10:14:27;38.0;;;29.0;;
45382;SDS011;42455;51.660;5.824;2023-02-15T10:20:31;38.5;;;30.0;;
45382;SDS011;42455;51.660;5.824;2023-02-15T10:26:25;34.0;;;28.0;;
45382;SDS011;42455;51.660;5.824;2023-02-15T10:27:50;33.0;;;27.0;;
45382;SDS011;42455;51.660;5.824;2023-02-15T10:29:35;35.0;;;27.0;;
45382;SDS011;42455;51.660;5.824;2023-02-15T10:34:31;32.0;;;26.0;;
45382;SDS011;42455;51.660;5.824;2023-02-15T10:40:07;32.0;;;26.0;;
45382;SDS011;42455;51.660;5.824;2023-02-15T10:46:48;31.0;;;25.0;;
45382;SDS011;42455;51.660;5.824;2023-02-15T10:51:26;31.0;;;25.0;;
45382;SDS011;42455;51.660;5.824;2023-02-15T10:57:46;31.0;;;26.0;;
45382;SDS011;42455;51.660;5.824;2023-02-15T11:02:17;29.0;;;25.0;;
45382;SDS011;42455;51.660;5.824;2023-02-15T11:06:51;28.0;;;24.0;;
45382;SDS011;42455;51.660;5.824;2023-02-15T11:10:05;27.0;;;23.0;;
45382;SDS011;42455;51.660;5.824;2023-02-15T11:15:28;29.0;;;24.0;;
45382;SDS011;42455;51.660;5.824;2023-02-15T11:20:18;26.0;;;22.0;;
45382;SDS011;42455;51.660;5.824;2023-02-15T11:25:31;26.0;;;22.0;;
45382;SDS011;42455;51.660;5.824;2023-02-15T11:30:29;28.0;;;22.0;;
45382;SDS011;42455;51.660;5.824;2023-02-15T11:35:47;27.0;;;23.0;;
45382;SDS011;42455;51.660;5.824;2023-02-15T11:40:45;27.0;;;22.0;;
45382;SDS011;42455;51.660;5.824;2023-02-15T11:45:46;27.0;;;23.0;;
45382;SDS011;42455;51.660;5.824;2023-02-15T11:50:52;28.0;;;23.0;;
45382;SDS011;42455;51.660;5.824;2023-02-15T11:55:59;27.0;;;23.0;;
45382;SDS011;42455;51.660;5.824;2023-02-15T12:01:10;28.0;;;23.0;;
45382;SDS011;42455;51.660;5.824;2023-02-15T12:06:16;27.0;;;22.0;;
45382;SDS011;42455;51.660;5.824;2023-02-15T12:11:20;27.5;;;22.0;;
45382;SDS011;42455;51.660;5.824;2023-02-15T12:16:23;26.0;;;22.0;;
45382;SDS011;42455;51.660;5.824;2023-02-15T12:21:31;31.0;;;23.0;;
45382;SDS011;42455;51.660;5.824;2023-02-15T12:26:36;26.5;;;21.0;;
45382;SDS011;42455;51.660;5.824;2023-02-15T12:31:43;26.0;;;21.5;;
45382;SDS011;42455;51.660;5.824;2023-02-15T12:36:52;27.0;;;22.0;;
45382;SDS011;42455;51.660;5.824;2023-02-15T12:42:01;26.0;;;21.0;;
45382;SDS011;42455;51.660;5.824;2023-02-15T12:47:01;26.0;;;21.0;;
45382;SDS011;42455;51.660;5.824;2023-02-15T12:52:10;25.0;;;22.0;;
45382;SDS011;42455;51.660;5.824;2023-02-15T12:57:30;26.0;;;22.0;;
45382;SDS011;42455;51.660;5.824;2023-02-15T13:02:22;26.0;;;22.0;;
45382;SDS011;42455;51.660;5.824;2023-02-15T13:07:31;26.0;;;22.0;;
45382;SDS011;42455;51.660;5.824;2023-02-15T13:12:31;26.0;;;22.0;;
45382;SDS011;42455;51.660;5.824;2023-02-15T13:17:37;25.5;;;22.0;;
45382;SDS011;42455;51.660;5.824;2023-02-15T13:22:46;26.0;;;22.0;;
45382;SDS011;42455;51.660;5.824;2023-02-15T13:27:52;26.5;;;22.0;;
45382;SDS011;42455;51.660;5.824;2023-02-15T13:32:58;27.0;;;22.0;;
45382;SDS011;42455;51.660;5.824;2023-02-15T13:38:41;27.0;;;22.0;;
45382;SDS011;42455;51.660;5.824;2023-02-15T13:43:29;28.0;;;23.0;;
45382;SDS011;42455;51.660;5.824;2023-02-15T13:49:38;27.0;;;22.0;;
45382;SDS011;42455;51.660;5.824;2023-02-15T13:55:30;26.0;;;21.0;;
45382;SDS011;42455;51.660;5.824;2023-02-15T14:01:25;25.0;;;21.0;;
45382;SDS011;42455;51.660;5.824;2023-02-15T14:07:30;24.0;;;21.0;;
45382;SDS011;42455;51.660;5.824;2023-02-15T14:13:52;25.0;;;21.0;;
45382;SDS011;42455;51.660;5.824;2023-02-15T14:18:41;24.0;;;22.0;;
45382;SDS011;42455;51.660;5.824;2023-02-15T14:23:25;26.0;;;23.0;;
45382;SDS011;42455;51.660;5.824;2023-02-15T14:28:07;28.0;;;23.0;;
45382;SDS011;42455;51.660;5.824;2023-02-15T14:30:57;26.0;;;23.0;;
45382;SDS011;42455;51.660;5.824;2023-02-15T14:34:14;27.0;;;24.0;;
45382;SDS011;42455;51.660;5.824;2023-02-15T14:40:02;27.0;;;23.0;;
45382;SDS011;42455;51.660;5.824;2023-02-15T14:44:58;27.0;;;23.0;;
45382;SDS011;42455;51.660;5.824;2023-02-15T14:55:00;29.0;;;24.0;;
45382;SDS011;42455;51.660;5.824;2023-02-15T14:59:41;28.5;;;25.0;;
45382;SDS011;42455;51.660;5.824;2023-02-15T15:09:58;27.0;;;22.0;;
45382;SDS011;42455;51.660;5.824;2023-02-15T15:14:59;25.5;;;22.0;;
45382;SDS011;42455;51.660;5.824;2023-02-15T15:20:38;28.0;;;23.0;;
45382;SDS011;42455;51.660;5.824;2023-02-15T15:25:11;30.0;;;25.0;;
45382;SDS011;42455;51.660;5.824;2023-02-15T15:30:49;31.0;;;24.0;;
45382;SDS011;42455;51.660;5.824;2023-02-15T15:36:50;28.0;;;23.0;;
45382;SDS011;42455;51.660;5.824;2023-02-15T15:44:54;29.0;;;22.0;;
45382;SDS011;42455;51.660;5.824;2023-02-15T15:48:42;27.0;;;22.0;;
45382;SDS011;42455;51.660;5.824;2023-02-15T15:50:52;27.0;;;21.0;;
45382;SDS011;42455;51.660;5.824;2023-02-15T15:56:06;27.0;;;20.0;;
45382;SDS011;42455;51.660;5.824;2023-02-15T16:01:16;27.0;;;20.0;;
45382;SDS011;42455;51.660;5.824;2023-02-15T16:06:41;26.0;;;20.0;;
45382;SDS011;42455;51.660;5.824;2023-02-15T16:11:41;26.0;;;20.0;;
45382;SDS011;42455;51.660;5.824;2023-02-15T16:16:56;27.0;;;19.0;;
45382;SDS011;42455;51.660;5.824;2023-02-15T16:22:06;27.0;;;20.0;;
45382;SDS011;42455;51.660;5.824;2023-02-15T16:27:40;27.0;;;20.0;;
45382;SDS011;42455;51.660;5.824;2023-02-15T16:32:18;27.0;;;21.0;;
45382;SDS011;42455;51.660;5.824;2023-02-15T16:37:24;27.5;;;21.0;;
45382;SDS011;42455;51.660;5.824;2023-02-15T16:42:29;28.0;;;21.0;;
45382;SDS011;42455;51.660;5.824;2023-02-15T16:47:36;28.0;;;22.0;;
45382;SDS011;42455;51.660;5.824;2023-02-15T16:52:42;27.0;;;21.0;;
45382;SDS011;42455;51.660;5.824;2023-02-15T16:57:48;29.0;;;22.0;;
45382;SDS011;42455;51.660;5.824;2023-02-15T17:02:58;28.0;;;22.0;;
45382;SDS011;42455;51.660;5.824;2023-02-15T17:08:15;28.0;;;23.0;;
45382;SDS011;42455;51.660;5.824;2023-02-15T17:13:10;27.0;;;22.0;;
45382;SDS011;42455;51.660;5.824;2023-02-15T17:18:18;30.0;;;24.0;;
45382;SDS011;42455;51.660;5.824;2023-02-15T17:23:29;28.5;;;23.0;;
45382;SDS011;42455;51.660;5.824;2023-02-15T17:28:29;33.0;;;25.0;;
45382;SDS011;42455;51.660;5.824;2023-02-15T17:33:38;29.0;;;24.5;;
45382;SDS011;42455;51.660;5.824;2023-02-15T17:38:38;29.0;;;25.0;;
45382;SDS011;42455;51.660;5.824;2023-02-15T17:43:44;34.0;;;25.0;;
45382;SDS011;42455;51.660;5.824;2023-02-15T17:48:51;32.0;;;25.0;;
45382;SDS011;42455;51.660;5.824;2023-02-15T17:53:56;31.0;;;25.0;;
45382;SDS011;42455;51.660;5.824;2023-02-15T17:59:03;33.0;;;26.0;;
45382;SDS011;42455;51.660;5.824;2023-02-15T18:04:11;30.0;;;25.0;;
45382;SDS011;42455;51.660;5.824;2023-02-15T18:09:15;28.0;;;24.0;;
45382;SDS011;42455;51.660;5.824;2023-02-15T18:14:20;30.5;;;24.0;;
45382;SDS011;42455;51.660;5.824;2023-02-15T18:19:26;29.0;;;23.0;;
45382;SDS011;42455;51.660;5.824;2023-02-15T18:24:33;28.0;;;23.0;;
45382;SDS011;42455;51.660;5.824;2023-02-15T18:29:39;30.0;;;24.0;;
45382;SDS011;42455;51.660;5.824;2023-02-15T18:34:45;29.0;;;24.0;;
45382;SDS011;42455;51.660;5.824;2023-02-15T18:39:51;31.0;;;25.0;;
45382;SDS011;42455;51.660;5.824;2023-02-15T18:45:00;29.0;;;24.0;;
45382;SDS011;42455;51.660;5.824;2023-02-15T18:50:04;30.5;;;25.0;;
45382;SDS011;42455;51.660;5.824;2023-02-15T18:55:16;30.0;;;25.0;;
45382;SDS011;42455;51.660;5.824;2023-02-15T19:00:16;32.0;;;26.0;;
45382;SDS011;42455;51.660;5.824;2023-02-15T19:05:22;30.0;;;25.0;;
45382;SDS011;42455;51.660;5.824;2023-02-15T19:10:32;34.0;;;26.0;;
45382;SDS011;42455;51.660;5.824;2023-02-15T19:15:35;34.0;;;27.0;;
45382;SDS011;42455;51.660;5.824;2023-02-15T19:20:41;32.0;;;27.0;;
45382;SDS011;42455;51.660;5.824;2023-02-15T19:25:47;33.0;;;26.0;;
45382;SDS011;42455;51.660;5.824;2023-02-15T19:30:53;33.0;;;27.0;;
45382;SDS011;42455;51.660;5.824;2023-02-15T19:35:59;33.5;;;28.0;;
45382;SDS011;42455;51.660;5.824;2023-02-15T19:41:06;33.0;;;27.0;;
45382;SDS011;42455;51.660;5.824;2023-02-15T19:46:15;35.0;;;28.0;;
45382;SDS011;42455;51.660;5.824;2023-02-15T19:51:18;34.0;;;28.0;;
45382;SDS011;42455;51.660;5.824;2023-02-15T19:56:23;33.0;;;28.0;;
45382;SDS011;42455;51.660;5.824;2023-02-15T20:01:29;35.5;;;29.0;;
45382;SDS011;42455;51.660;5.824;2023-02-15T20:06:35;36.0;;;29.0;;
45382;SDS011;42455;51.660;5.824;2023-02-15T20:11:41;38.0;;;30.5;;
45382;SDS011;42455;51.660;5.824;2023-02-15T20:16:46;36.0;;;30.0;;
45382;SDS011;42455;51.660;5.824;2023-02-15T20:21:52;36.0;;;30.0;;
45382;SDS011;42455;51.660;5.824;2023-02-15T20:26:59;38.0;;;30.0;;
45382;SDS011;42455;51.660;5.824;2023-02-15T20:32:07;35.5;;;29.0;;
45382;SDS011;42455;51.660;5.824;2023-02-15T20:37:15;37.0;;;30.0;;
45382;SDS011;42455;51.660;5.824;2023-02-15T20:42:17;36.0;;;31.0;;
45382;SDS011;42455;51.660;5.824;2023-02-15T20:47:24;35.0;;;30.0;;
45382;SDS011;42455;51.660;5.824;2023-02-15T20:52:30;39.0;;;31.0;;
45382;SDS011;42455;51.660;5.824;2023-02-15T20:57:36;40.0;;;32.0;;
45382;SDS011;42455;51.660;5.824;2023-02-15T21:02:42;39.0;;;32.0;;
45382;SDS011;42455;51.660;5.824;2023-02-15T21:07:50;38.0;;;31.0;;
45382;SDS011;42455;51.660;5.824;2023-02-15T21:12:55;41.0;;;32.0;;
45382;SDS011;42455;51.660;5.824;2023-02-15T21:18:01;38.0;;;32.0;;
45382;SDS011;42455;51.660;5.824;2023-02-15T21:23:06;39.0;;;32.0;;
45382;SDS011;42455;51.660;5.824;2023-02-15T21:28:18;40.5;;;32.0;;
45382;SDS011;42455;51.660;5.824;2023-02-15T21:33:18;39.0;;;32.0;;
45382;SDS011;42455;51.660;5.824;2023-02-15T21:38:28;39.0;;;33.0;;
45382;SDS011;42455;51.660;5.824;2023-02-15T21:43:31;39.0;;;33.0;;
45382;SDS011;42455;51.660;5.824;2023-02-15T21:48:37;42.5;;;33.0;;
45382;SDS011;42455;51.660;5.824;2023-02-15T21:53:45;39.0;;;32.0;;
45382;SDS011;42455;51.660;5.824;2023-02-15T21:58:49;38.0;;;32.0;;
45382;SDS011;42455;51.660;5.824;2023-02-15T22:03:56;40.5;;;34.0;;
45382;SDS011;42455;51.660;5.824;2023-02-15T22:09:01;38.0;;;32.0;;
45382;SDS011;42455;51.660;5.824;2023-02-15T22:14:07;39.0;;;32.0;;
45382;SDS011;42455;51.660;5.824;2023-02-15T22:19:12;40.0;;;32.0;;
45382;SDS011;42455;51.660;5.824;2023-02-15T22:24:19;38.0;;;32.0;;
45382;SDS011;42455;51.660;5.824;2023-02-15T22:29:25;38.5;;;33.0;;
45382;SDS011;42455;51.660;5.824;2023-02-15T22:34:31;39.0;;;33.0;;
45382;SDS011;42455;51.660;5.824;2023-02-15T22:39:37;41.5;;;32.0;;
45382;SDS011;42455;51.660;5.824;2023-02-15T22:44:44;39.0;;;33.0;;
45382;SDS011;42455;51.660;5.824;2023-02-15T22:49:50;40.0;;;33.0;;
45382;SDS011;42455;51.660;5.824;2023-02-15T22:54:56;38.5;;;32.0;;
45382;SDS011;42455;51.660;5.824;2023-02-15T23:00:03;41.0;;;33.0;;
45382;SDS011;42455;51.660;5.824;2023-02-15T23:05:13;40.0;;;33.0;;
45382;SDS011;42455;51.660;5.824;2023-02-15T23:10:14;38.0;;;32.5;;
45382;SDS011;42455;51.660;5.824;2023-02-15T23:15:21;40.0;;;33.0;;
45382;SDS011;42455;51.660;5.824;2023-02-15T23:20:27;39.0;;;32.0;;
45382;SDS011;42455;51.660;5.824;2023-02-15T23:25:33;39.0;;;32.0;;
45382;SDS011;42455;51.660;5.824;2023-02-15T23:30:39;41.0;;;33.0;;
45382;SDS011;42455;51.660;5.824;2023-02-15T23:35:45;40.0;;;33.0;;
45382;SDS011;42455;51.660;5.824;2023-02-15T23:40:53;41.0;;;33.0;;
45382;SDS011;42455;51.660;5.824;2023-02-15T23:45:58;40.0;;;32.0;;
45382;SDS011;42455;51.660;5.824;2023-02-15T23:51:04;42.0;;;33.0;;
45382;SDS011;42455;51.660;5.824;2023-02-15T23:56:11;42.5;;;34.0;;
